Hampton, Langley Air Force Base (KLFI)

NameLangley Air Force Base
CityHampton
CountryUnited States
ICAOKLFI
IATA
Altitude3 m
CoordinatesGoogle Map
Live Air TrafficLiveATC.net
METARKLFI 192003Z 20013G20KT 7SM -RA SCT050 BKN100 24/20 A2970 RMK RAB01 SLP064 $
2019-04-19 20:03:00 Wind: South (200°) 6.69 m/s - Visibility: 11265.38 m - Weather: Light Rain - Temperature: 24 °C - Dew point: 20 °C - Humidity: 78.4% - Pressure: 1005.76 hPa
Statistics

The table below shows the detailed information of all flights to/from Hampton, Langley Air Force Base (KLFI).